sensor_id;sensor_type;location;lat;lon;timestamp;temperature;humidity
12233;DHT22;6179;51.748;8.728;2023-02-15T00:02:36;3.10;97.90
12233;DHT22;6179;51.748;8.728;2023-02-15T00:08:37;3.10;98.00
12233;DHT22;6179;51.748;8.728;2023-02-15T00:14:38;3.00;98.00
12233;DHT22;6179;51.748;8.728;2023-02-15T00:20:39;3.10;97.90
12233;DHT22;6179;51.748;8.728;2023-02-15T00:26:40;3.40;97.10
12233;DHT22;6179;51.748;8.728;2023-02-15T00:32:42;3.10;97.30
12233;DHT22;6179;51.748;8.728;2023-02-15T00:38:43;2.90;98.10
12233;DHT22;6179;51.748;8.728;2023-02-15T00:44:44;2.90;98.30
12233;DHT22;6179;51.748;8.728;2023-02-15T00:50:49;2.70;98.30
12233;DHT22;6179;51.748;8.728;2023-02-15T00:56:51;2.70;98.30
12233;DHT22;6179;51.748;8.728;2023-02-15T01:02:51;2.80;98.30
12233;DHT22;6179;51.748;8.728;2023-02-15T01:08:52;2.40;98.30
12233;DHT22;6179;51.748;8.728;2023-02-15T01:14:53;2.30;98.30
12233;DHT22;6179;51.748;8.728;2023-02-15T01:20:55;2.40;98.30
12233;DHT22;6179;51.748;8.728;2023-02-15T01:26:56;2.30;98.30
12233;DHT22;6179;51.748;8.728;2023-02-15T01:32:57;2.20;98.30
12233;DHT22;6179;51.748;8.728;2023-02-15T01:38:58;2.10;98.30
12233;DHT22;6179;51.748;8.728;2023-02-15T01:51:35;2.20;98.30
12233;DHT22;6179;51.748;8.728;2023-02-15T01:57:40;2.00;98.30
12233;DHT22;6179;51.748;8.728;2023-02-15T02:10:36;2.10;98.30
12233;DHT22;6179;51.748;8.728;2023-02-15T02:16:49;2.00;98.30
12233;DHT22;6179;51.748;8.728;2023-02-15T02:23:35;1.80;98.30
12233;DHT22;6179;51.748;8.728;2023-02-15T02:48:36;1.70;98.30
12233;DHT22;6179;51.748;8.728;2023-02-15T02:54:38;1.70;98.30
12233;DHT22;6179;51.748;8.728;2023-02-15T03:06:59;1.80;98.30
12233;DHT22;6179;51.748;8.728;2023-02-15T03:13:05;1.60;98.30
12233;DHT22;6179;51.748;8.728;2023-02-15T03:19:23;1.60;98.30
12233;DHT22;6179;51.748;8.728;2023-02-15T03:25:40;1.60;98.30
12233;DHT22;6179;51.748;8.728;2023-02-15T03:31:46;1.60;98.30
12233;DHT22;6179;51.748;8.728;2023-02-15T03:38:00;1.50;98.30
12233;DHT22;6179;51.748;8.728;2023-02-15T03:44:14;1.60;98.30
12233;DHT22;6179;51.748;8.728;2023-02-15T03:50:24;1.40;98.30
12233;DHT22;6179;51.748;8.728;2023-02-15T03:56:48;1.30;98.30
12233;DHT22;6179;51.748;8.728;2023-02-15T04:09:16;1.10;98.30
12233;DHT22;6179;51.748;8.728;2023-02-15T04:15:35;1.10;98.30
12233;DHT22;6179;51.748;8.728;2023-02-15T04:21:54;1.10;98.30
12233;DHT22;6179;51.748;8.728;2023-02-15T04:28:13;1.10;98.30
12233;DHT22;6179;51.748;8.728;2023-02-15T04:34:14;1.00;98.30
12233;DHT22;6179;51.748;8.728;2023-02-15T04:40:16;1.10;98.30
12233;DHT22;6179;51.748;8.728;2023-02-15T04:46:18;1.20;98.30
12233;DHT22;6179;51.748;8.728;2023-02-15T04:52:18;1.20;98.30
12233;DHT22;6179;51.748;8.728;2023-02-15T04:58:19;1.30;98.30
12233;DHT22;6179;51.748;8.728;2023-02-15T05:04:20;1.10;98.30
12233;DHT22;6179;51.748;8.728;2023-02-15T05:10:21;1.20;98.30
12233;DHT22;6179;51.748;8.728;2023-02-15T05:16:22;0.80;98.30
12233;DHT22;6179;51.748;8.728;2023-02-15T05:22:23;0.80;98.30
12233;DHT22;6179;51.748;8.728;2023-02-15T05:28:26;1.00;98.30
12233;DHT22;6179;51.748;8.728;2023-02-15T05:34:27;1.00;98.30
12233;DHT22;6179;51.748;8.728;2023-02-15T05:40:28;1.10;98.30
12233;DHT22;6179;51.748;8.728;2023-02-15T05:46:29;1.00;98.30
12233;DHT22;6179;51.748;8.728;2023-02-15T05:52:30;1.00;98.30
12233;DHT22;6179;51.748;8.728;2023-02-15T05:58:36;0.80;98.30
12233;DHT22;6179;51.748;8.728;2023-02-15T06:04:38;0.90;98.30
12233;DHT22;6179;51.748;8.728;2023-02-15T06:10:39;0.90;98.30
12233;DHT22;6179;51.748;8.728;2023-02-15T06:16:40;0.90;98.30
12233;DHT22;6179;51.748;8.728;2023-02-15T06:22:41;0.90;98.30
12233;DHT22;6179;51.748;8.728;2023-02-15T06:28:41;0.80;98.30
12233;DHT22;6179;51.748;8.728;2023-02-15T06:34:42;0.70;98.30
12233;DHT22;6179;51.748;8.728;2023-02-15T06:40:43;0.80;98.30
12233;DHT22;6179;51.748;8.728;2023-02-15T06:46:44;0.80;98.30
12233;DHT22;6179;51.748;8.728;2023-02-15T06:52:45;0.90;98.30
12233;DHT22;6179;51.748;8.728;2023-02-15T06:58:45;0.80;98.30
12233;DHT22;6179;51.748;8.728;2023-02-15T07:04:46;0.70;98.30
12233;DHT22;6179;51.748;8.728;2023-02-15T07:10:49;1.00;98.30
12233;DHT22;6179;51.748;8.728;2023-02-15T07:16:50;0.90;98.30
12233;DHT22;6179;51.748;8.728;2023-02-15T07:22:52;0.90;98.30
12233;DHT22;6179;51.748;8.728;2023-02-15T07:28:53;0.90;98.30
12233;DHT22;6179;51.748;8.728;2023-02-15T07:34:54;1.20;98.30
12233;DHT22;6179;51.748;8.728;2023-02-15T07:40:59;1.30;98.30
12233;DHT22;6179;51.748;8.728;2023-02-15T07:47:01;1.60;98.30
12233;DHT22;6179;51.748;8.728;2023-02-15T07:53:02;1.80;98.30
12233;DHT22;6179;51.748;8.728;2023-02-15T07:59:03;1.90;98.30
12233;DHT22;6179;51.748;8.728;2023-02-15T08:05:06;1.80;98.30
12233;DHT22;6179;51.748;8.728;2023-02-15T08:11:28;1.90;98.30
12233;DHT22;6179;51.748;8.728;2023-02-15T08:17:36;2.20;98.30
12233;DHT22;6179;51.748;8.728;2023-02-15T08:23:37;2.20;98.30
12233;DHT22;6179;51.748;8.728;2023-02-15T08:29:38;2.40;98.30
12233;DHT22;6179;51.748;8.728;2023-02-15T08:35:39;2.50;98.30
12233;DHT22;6179;51.748;8.728;2023-02-15T08:41:43;2.70;98.30
12233;DHT22;6179;51.748;8.728;2023-02-15T08:47:44;3.00;98.30
12233;DHT22;6179;51.748;8.728;2023-02-15T08:53:53;3.30;98.30
12233;DHT22;6179;51.748;8.728;2023-02-15T08:59:55;3.30;98.30
12233;DHT22;6179;51.748;8.728;2023-02-15T09:06:00;3.80;98.30
12233;DHT22;6179;51.748;8.728;2023-02-15T09:18:03;4.20;96.80
12233;DHT22;6179;51.748;8.728;2023-02-15T09:24:08;4.60;94.80
12233;DHT22;6179;51.748;8.728;2023-02-15T09:30:12;4.80;94.20
12233;DHT22;6179;51.748;8.728;2023-02-15T09:42:51;5.50;91.60
12233;DHT22;6179;51.748;8.728;2023-02-15T09:49:09;5.70;91.40
12233;DHT22;6179;51.748;8.728;2023-02-15T10:08:04;6.60;89.40
12233;DHT22;6179;51.748;8.728;2023-02-15T10:27:11;7.00;88.00
12233;DHT22;6179;51.748;8.728;2023-02-15T10:33:48;6.50;91.00
12233;DHT22;6179;51.748;8.728;2023-02-15T11:06:14;7.60;88.40
12233;DHT22;6179;51.748;8.728;2023-02-15T11:12:23;8.00;87.30
12233;DHT22;6179;51.748;8.728;2023-02-15T11:24:34;8.40;87.20
12233;DHT22;6179;51.748;8.728;2023-02-15T11:30:43;8.80;86.60
12233;DHT22;6179;51.748;8.728;2023-02-15T11:36:49;9.00;86.50
12233;DHT22;6179;51.748;8.728;2023-02-15T11:42:59;9.50;84.20
12233;DHT22;6179;51.748;8.728;2023-02-15T11:49:32;9.70;82.70
12233;DHT22;6179;51.748;8.728;2023-02-15T11:55:34;10.00;82.90
12233;DHT22;6179;51.748;8.728;2023-02-15T12:01:46;10.10;82.80
12233;DHT22;6179;51.748;8.728;2023-02-15T12:07:57;10.00;82.20
12233;DHT22;6179;51.748;8.728;2023-02-15T12:14:07;10.10;83.30
12233;DHT22;6179;51.748;8.728;2023-02-15T12:26:13;10.40;82.30
12233;DHT22;6179;51.748;8.728;2023-02-15T12:32:22;10.50;81.70
12233;DHT22;6179;51.748;8.728;2023-02-15T12:38:26;10.90;81.10
12233;DHT22;6179;51.748;8.728;2023-02-15T12:44:34;10.70;82.20
12233;DHT22;6179;51.748;8.728;2023-02-15T12:50:36;11.10;80.60
12233;DHT22;6179;51.748;8.728;2023-02-15T12:56:37;11.60;79.30
12233;DHT22;6179;51.748;8.728;2023-02-15T13:02:44;11.40;80.10
12233;DHT22;6179;51.748;8.728;2023-02-15T13:08:54;11.60;79.40
12233;DHT22;6179;51.748;8.728;2023-02-15T13:14:59;11.80;79.50
12233;DHT22;6179;51.748;8.728;2023-02-15T13:21:14;12.10;78.70
12233;DHT22;6179;51.748;8.728;2023-02-15T13:27:21;12.10;79.40
12233;DHT22;6179;51.748;8.728;2023-02-15T13:33:36;12.50;77.10
12233;DHT22;6179;51.748;8.728;2023-02-15T13:39:48;12.00;78.90
12233;DHT22;6179;51.748;8.728;2023-02-15T13:46:45;12.20;78.20
12233;DHT22;6179;51.748;8.728;2023-02-15T13:59:37;12.60;77.50
12233;DHT22;6179;51.748;8.728;2023-02-15T14:19:03;13.10;76.50
12233;DHT22;6179;51.748;8.728;2023-02-15T14:25:35;13.30;75.40
12233;DHT22;6179;51.748;8.728;2023-02-15T14:31:47;13.10;77.50
12233;DHT22;6179;51.748;8.728;2023-02-15T14:45:38;12.40;80.00
12233;DHT22;6179;51.748;8.728;2023-02-15T14:57:56;12.70;79.60
12233;DHT22;6179;51.748;8.728;2023-02-15T15:04:02;12.70;78.90
12233;DHT22;6179;51.748;8.728;2023-02-15T15:10:37;12.70;78.70
12233;DHT22;6179;51.748;8.728;2023-02-15T15:16:49;12.50;79.60
12233;DHT22;6179;51.748;8.728;2023-02-15T15:29:40;12.10;80.20
12233;DHT22;6179;51.748;8.728;2023-02-15T15:36:22;11.30;82.60
12233;DHT22;6179;51.748;8.728;2023-02-15T15:49:20;10.70;84.60
12233;DHT22;6179;51.748;8.728;2023-02-15T15:55:25;10.40;85.20
12233;DHT22;6179;51.748;8.728;2023-02-15T16:01:37;10.00;86.30
12233;DHT22;6179;51.748;8.728;2023-02-15T16:07:41;9.90;86.40
12233;DHT22;6179;51.748;8.728;2023-02-15T16:13:43;9.80;86.30
12233;DHT22;6179;51.748;8.728;2023-02-15T16:19:44;9.30;87.50
12233;DHT22;6179;51.748;8.728;2023-02-15T16:32:26;8.90;88.50
12233;DHT22;6179;51.748;8.728;2023-02-15T16:44:48;8.60;88.80
12233;DHT22;6179;51.748;8.728;2023-02-15T16:50:57;8.40;89.20
12233;DHT22;6179;51.748;8.728;2023-02-15T16:56:59;8.20;89.50
12233;DHT22;6179;51.748;8.728;2023-02-15T17:03:03;7.90;89.90
12233;DHT22;6179;51.748;8.728;2023-02-15T17:09:15;7.50;91.00
12233;DHT22;6179;51.748;8.728;2023-02-15T17:15:33;7.40;91.00
12233;DHT22;6179;51.748;8.728;2023-02-15T17:21:44;7.20;91.50
12233;DHT22;6179;51.748;8.728;2023-02-15T17:27:55;6.90;91.90
12233;DHT22;6179;51.748;8.728;2023-02-15T17:33:56;6.60;93.40
12233;DHT22;6179;51.748;8.728;2023-02-15T17:40:00;6.40;93.90
12233;DHT22;6179;51.748;8.728;2023-02-15T17:46:07;6.30;94.00
12233;DHT22;6179;51.748;8.728;2023-02-15T17:52:12;6.30;93.70
12233;DHT22;6179;51.748;8.728;2023-02-15T17:58:17;6.30;93.30
12233;DHT22;6179;51.748;8.728;2023-02-15T18:04:19;6.00;94.60
12233;DHT22;6179;51.748;8.728;2023-02-15T18:10:39;5.90;94.50
12233;DHT22;6179;51.748;8.728;2023-02-15T18:16:59;5.90;94.20
12233;DHT22;6179;51.748;8.728;2023-02-15T18:22:59;5.70;95.00
12233;DHT22;6179;51.748;8.728;2023-02-15T18:29:01;5.40;96.50
12233;DHT22;6179;51.748;8.728;2023-02-15T18:35:02;5.30;96.40
12233;DHT22;6179;51.748;8.728;2023-02-15T18:41:05;5.50;96.10
12233;DHT22;6179;51.748;8.728;2023-02-15T18:47:05;5.30;96.10
12233;DHT22;6179;51.748;8.728;2023-02-15T18:53:14;5.20;96.30
12233;DHT22;6179;51.748;8.728;2023-02-15T18:59:18;5.10;96.30
12233;DHT22;6179;51.748;8.728;2023-02-15T19:05:21;5.00;96.50
12233;DHT22;6179;51.748;8.728;2023-02-15T19:11:23;4.70;97.20
12233;DHT22;6179;51.748;8.728;2023-02-15T19:17:24;4.80;96.70
12233;DHT22;6179;51.748;8.728;2023-02-15T19:23:25;5.10;96.00
12233;DHT22;6179;51.748;8.728;2023-02-15T19:29:28;4.60;96.60
12233;DHT22;6179;51.748;8.728;2023-02-15T19:35:33;4.30;97.70
12233;DHT22;6179;51.748;8.728;2023-02-15T19:41:34;4.20;98.30
12233;DHT22;6179;51.748;8.728;2023-02-15T19:47:35;4.30;98.00
12233;DHT22;6179;51.748;8.728;2023-02-15T19:53:36;4.20;98.30
12233;DHT22;6179;51.748;8.728;2023-02-15T19:59:38;4.30;98.10
12233;DHT22;6179;51.748;8.728;2023-02-15T20:05:39;4.30;97.70
12233;DHT22;6179;51.748;8.728;2023-02-15T20:11:41;4.20;98.20
12233;DHT22;6179;51.748;8.728;2023-02-15T20:17:42;4.10;98.00
12233;DHT22;6179;51.748;8.728;2023-02-15T20:23:43;4.00;98.30
12233;DHT22;6179;51.748;8.728;2023-02-15T20:29:45;4.00;98.30
12233;DHT22;6179;51.748;8.728;2023-02-15T20:35:47;4.30;97.80
12233;DHT22;6179;51.748;8.728;2023-02-15T20:41:48;4.20;97.30
12233;DHT22;6179;51.748;8.728;2023-02-15T20:47:50;4.20;97.50
12233;DHT22;6179;51.748;8.728;2023-02-15T20:53:51;4.10;97.10
12233;DHT22;6179;51.748;8.728;2023-02-15T20:59:52;4.10;97.00
12233;DHT22;6179;51.748;8.728;2023-02-15T21:05:53;4.00;97.20
12233;DHT22;6179;51.748;8.728;2023-02-15T21:11:55;4.00;97.20
12233;DHT22;6179;51.748;8.728;2023-02-15T21:18:04;3.80;97.70
12233;DHT22;6179;51.748;8.728;2023-02-15T21:24:13;3.80;97.90
12233;DHT22;6179;51.748;8.728;2023-02-15T21:30:25;3.70;98.30
12233;DHT22;6179;51.748;8.728;2023-02-15T21:36:26;3.80;98.30
12233;DHT22;6179;51.748;8.728;2023-02-15T21:42:27;3.80;98.30
12233;DHT22;6179;51.748;8.728;2023-02-15T21:48:47;3.70;98.30
12233;DHT22;6179;51.748;8.728;2023-02-15T21:54:47;3.80;98.30
12233;DHT22;6179;51.748;8.728;2023-02-15T22:00:49;4.00;97.80
12233;DHT22;6179;51.748;8.728;2023-02-15T22:06:50;4.30;96.90
12233;DHT22;6179;51.748;8.728;2023-02-15T22:12:51;4.10;96.90
12233;DHT22;6179;51.748;8.728;2023-02-15T22:18:53;4.10;96.70
12233;DHT22;6179;51.748;8.728;2023-02-15T22:24:54;3.90;97.00
12233;DHT22;6179;51.748;8.728;2023-02-15T22:30:54;4.00;96.80
12233;DHT22;6179;51.748;8.728;2023-02-15T22:36:56;3.70;97.50
12233;DHT22;6179;51.748;8.728;2023-02-15T22:43:03;3.50;98.10
12233;DHT22;6179;51.748;8.728;2023-02-15T22:49:05;3.60;98.30
12233;DHT22;6179;51.748;8.728;2023-02-15T22:55:06;3.60;98.10
12233;DHT22;6179;51.748;8.728;2023-02-15T23:01:21;3.50;98.30
12233;DHT22;6179;51.748;8.728;2023-02-15T23:07:27;3.90;97.50
12233;DHT22;6179;51.748;8.728;2023-02-15T23:13:31;3.70;98.00
12233;DHT22;6179;51.748;8.728;2023-02-15T23:19:32;3.80;97.40
12233;DHT22;6179;51.748;8.728;2023-02-15T23:25:33;3.90;97.10
12233;DHT22;6179;51.748;8.728;2023-02-15T23:31:35;3.80;97.20
12233;DHT22;6179;51.748;8.728;2023-02-15T23:37:41;4.00;96.40
12233;DHT22;6179;51.748;8.728;2023-02-15T23:43:47;4.20;95.10
12233;DHT22;6179;51.748;8.728;2023-02-15T23:49:53;3.90;95.40
12233;DHT22;6179;51.748;8.728;2023-02-15T23:55:54;3.70;96.10
